sensor_id;sensor_type;location;lat;lon;timestamp;P1;durP1;ratioP1;P2;durP2;ratioP2
76593;SDS011;65482;50.240;14.302;2023-02-04T00:02:07;1.45;;;0.80;;
76593;SDS011;65482;50.240;14.302;2023-02-04T00:04:32;2.63;;;1.13;;
76593;SDS011;65482;50.240;14.302;2023-02-04T00:06:58;1.35;;;0.70;;
76593;SDS011;65482;50.240;14.302;2023-02-04T00:09:23;3.08;;;0.88;;
76593;SDS011;65482;50.240;14.302;2023-02-04T00:11:49;1.92;;;0.90;;
76593;SDS011;65482;50.240;14.302;2023-02-04T00:14:14;2.05;;;0.70;;
76593;SDS011;65482;50.240;14.302;2023-02-04T00:16:40;1.30;;;0.60;;
76593;SDS011;65482;50.240;14.302;2023-02-04T00:19:05;1.48;;;0.77;;
76593;SDS011;65482;50.240;14.302;2023-02-04T00:21:31;0.90;;;0.55;;
76593;SDS011;65482;50.240;14.302;2023-02-04T00:23:56;1.15;;;0.60;;
76593;SDS011;65482;50.240;14.302;2023-02-04T00:26:22;0.77;;;0.60;;
76593;SDS011;65482;50.240;14.302;2023-02-04T00:28:47;0.60;;;0.40;;
76593;SDS011;65482;50.240;14.302;2023-02-04T00:31:13;0.77;;;0.50;;
76593;SDS011;65482;50.240;14.302;2023-02-04T00:33:38;1.27;;;0.50;;
76593;SDS011;65482;50.240;14.302;2023-02-04T00:36:07;1.00;;;0.50;;
76593;SDS011;65482;50.240;14.302;2023-02-04T00:38:32;0.80;;;0.50;;
76593;SDS011;65482;50.240;14.302;2023-02-04T00:40:58;0.88;;;0.50;;
76593;SDS011;65482;50.240;14.302;2023-02-04T00:43:23;1.27;;;0.50;;
76593;SDS011;65482;50.240;14.302;2023-02-04T00:45:49;0.57;;;0.40;;
76593;SDS011;65482;50.240;14.302;2023-02-04T00:48:14;0.65;;;0.40;;
76593;SDS011;65482;50.240;14.302;2023-02-04T00:50:40;0.98;;;0.40;;
76593;SDS011;65482;50.240;14.302;2023-02-04T00:53:06;0.98;;;0.47;;
76593;SDS011;65482;50.240;14.302;2023-02-04T00:55:32;0.47;;;0.40;;
76593;SDS011;65482;50.240;14.302;2023-02-04T00:57:57;0.63;;;0.40;;
76593;SDS011;65482;50.240;14.302;2023-02-04T01:00:23;4.45;;;0.50;;
76593;SDS011;65482;50.240;14.302;2023-02-04T01:02:49;0.45;;;0.30;;
76593;SDS011;65482;50.240;14.302;2023-02-04T01:05:14;0.30;;;0.30;;
76593;SDS011;65482;50.240;14.302;2023-02-04T01:07:40;1.95;;;0.73;;
76593;SDS011;65482;50.240;14.302;2023-02-04T01:10:06;1.23;;;0.30;;
76593;SDS011;65482;50.240;14.302;2023-02-04T01:12:31;0.60;;;0.40;;
76593;SDS011;65482;50.240;14.302;2023-02-04T01:14:57;1.13;;;0.40;;
76593;SDS011;65482;50.240;14.302;2023-02-04T01:17:22;0.43;;;0.43;;
76593;SDS011;65482;50.240;14.302;2023-02-04T01:19:48;1.85;;;0.45;;
76593;SDS011;65482;50.240;14.302;2023-02-04T01:22:13;0.30;;;0.30;;
76593;SDS011;65482;50.240;14.302;2023-02-04T01:24:39;0.30;;;0.30;;
76593;SDS011;65482;50.240;14.302;2023-02-04T01:27:04;0.35;;;0.35;;
76593;SDS011;65482;50.240;14.302;2023-02-04T01:29:30;0.40;;;0.40;;
76593;SDS011;65482;50.240;14.302;2023-02-04T01:31:56;0.85;;;0.50;;
76593;SDS011;65482;50.240;14.302;2023-02-04T01:34:21;0.45;;;0.35;;
76593;SDS011;65482;50.240;14.302;2023-02-04T01:36:47;0.82;;;0.50;;
76593;SDS011;65482;50.240;14.302;2023-02-04T01:39:12;1.05;;;0.60;;
76593;SDS011;65482;50.240;14.302;2023-02-04T01:41:38;0.45;;;0.45;;
76593;SDS011;65482;50.240;14.302;2023-02-04T01:44:04;0.30;;;0.30;;
76593;SDS011;65482;50.240;14.302;2023-02-04T01:46:30;2.38;;;0.50;;
76593;SDS011;65482;50.240;14.302;2023-02-04T01:48:58;0.95;;;0.52;;
76593;SDS011;65482;50.240;14.302;2023-02-04T01:51:25;1.98;;;0.60;;
76593;SDS011;65482;50.240;14.302;2023-02-04T01:53:54;1.77;;;0.70;;
76593;SDS011;65482;50.240;14.302;2023-02-04T01:56:21;2.30;;;0.70;;
76593;SDS011;65482;50.240;14.302;2023-02-04T01:58:50;1.00;;;0.68;;
76593;SDS011;65482;50.240;14.302;2023-02-04T02:01:32;1.08;;;0.50;;
76593;SDS011;65482;50.240;14.302;2023-02-04T02:03:58;2.25;;;0.80;;
76593;SDS011;65482;50.240;14.302;2023-02-04T02:06:23;1.35;;;0.70;;
76593;SDS011;65482;50.240;14.302;2023-02-04T02:08:49;1.20;;;0.55;;
76593;SDS011;65482;50.240;14.302;2023-02-04T02:11:15;0.75;;;0.60;;
76593;SDS011;65482;50.240;14.302;2023-02-04T02:13:41;1.42;;;0.80;;
76593;SDS011;65482;50.240;14.302;2023-02-04T02:16:06;1.00;;;0.82;;
76593;SDS011;65482;50.240;14.302;2023-02-04T02:18:32;1.83;;;0.90;;
76593;SDS011;65482;50.240;14.302;2023-02-04T02:20:58;0.82;;;0.77;;
76593;SDS011;65482;50.240;14.302;2023-02-04T02:23:46;1.50;;;0.82;;
76593;SDS011;65482;50.240;14.302;2023-02-04T02:26:12;1.65;;;0.98;;
76593;SDS011;65482;50.240;14.302;2023-02-04T02:28:40;0.85;;;0.70;;
76593;SDS011;65482;50.240;14.302;2023-02-04T02:31:06;2.17;;;0.80;;
76593;SDS011;65482;50.240;14.302;2023-02-04T02:33:32;0.90;;;0.70;;
76593;SDS011;65482;50.240;14.302;2023-02-04T02:35:58;1.38;;;1.00;;
76593;SDS011;65482;50.240;14.302;2023-02-04T02:38:24;1.08;;;0.70;;
76593;SDS011;65482;50.240;14.302;2023-02-04T02:40:49;1.23;;;0.82;;
76593;SDS011;65482;50.240;14.302;2023-02-04T02:43:17;1.30;;;0.80;;
76593;SDS011;65482;50.240;14.302;2023-02-04T02:45:47;1.08;;;0.90;;
76593;SDS011;65482;50.240;14.302;2023-02-04T02:48:14;1.35;;;0.80;;
76593;SDS011;65482;50.240;14.302;2023-02-04T02:50:40;1.85;;;0.90;;
76593;SDS011;65482;50.240;14.302;2023-02-04T02:53:14;1.27;;;0.85;;
76593;SDS011;65482;50.240;14.302;2023-02-04T02:55:41;2.38;;;0.73;;
76593;SDS011;65482;50.240;14.302;2023-02-04T02:58:12;1.13;;;0.70;;
76593;SDS011;65482;50.240;14.302;2023-02-04T03:00:41;1.08;;;0.70;;
76593;SDS011;65482;50.240;14.302;2023-02-04T03:03:08;1.85;;;0.80;;
76593;SDS011;65482;50.240;14.302;2023-02-04T03:05:39;0.93;;;0.68;;
76593;SDS011;65482;50.240;14.302;2023-02-04T03:08:07;0.88;;;0.75;;
76593;SDS011;65482;50.240;14.302;2023-02-04T03:10:34;1.13;;;0.73;;
76593;SDS011;65482;50.240;14.302;2023-02-04T03:13:00;3.33;;;0.80;;
76593;SDS011;65482;50.240;14.302;2023-02-04T03:15:27;1.30;;;0.80;;
76593;SDS011;65482;50.240;14.302;2023-02-04T03:17:53;1.63;;;0.80;;
76593;SDS011;65482;50.240;14.302;2023-02-04T03:20:21;2.65;;;0.82;;
76593;SDS011;65482;50.240;14.302;2023-02-04T03:22:50;1.80;;;1.10;;
76593;SDS011;65482;50.240;14.302;2023-02-04T03:25:16;2.17;;;1.20;;
76593;SDS011;65482;50.240;14.302;2023-02-04T03:27:45;2.40;;;1.35;;
76593;SDS011;65482;50.240;14.302;2023-02-04T03:30:11;3.33;;;1.55;;
76593;SDS011;65482;50.240;14.302;2023-02-04T03:32:37;2.10;;;1.20;;
76593;SDS011;65482;50.240;14.302;2023-02-04T03:35:03;2.92;;;1.60;;
76593;SDS011;65482;50.240;14.302;2023-02-04T03:37:28;1.30;;;0.90;;
76593;SDS011;65482;50.240;14.302;2023-02-04T03:39:54;1.20;;;0.98;;
76593;SDS011;65482;50.240;14.302;2023-02-04T03:42:19;2.45;;;1.00;;
76593;SDS011;65482;50.240;14.302;2023-02-04T03:44:45;1.63;;;1.08;;
76593;SDS011;65482;50.240;14.302;2023-02-04T03:47:11;3.72;;;1.42;;
76593;SDS011;65482;50.240;14.302;2023-02-04T03:49:36;2.13;;;1.40;;
76593;SDS011;65482;50.240;14.302;2023-02-04T03:52:02;2.30;;;1.35;;
76593;SDS011;65482;50.240;14.302;2023-02-04T03:54:28;2.05;;;1.40;;
76593;SDS011;65482;50.240;14.302;2023-02-04T03:56:54;1.60;;;1.30;;
76593;SDS011;65482;50.240;14.302;2023-02-04T03:59:19;3.38;;;1.52;;
76593;SDS011;65482;50.240;14.302;2023-02-04T04:01:45;1.88;;;1.30;;
76593;SDS011;65482;50.240;14.302;2023-02-04T04:04:10;2.75;;;1.50;;
76593;SDS011;65482;50.240;14.302;2023-02-04T04:06:36;2.63;;;1.30;;
76593;SDS011;65482;50.240;14.302;2023-02-04T04:09:01;1.98;;;1.30;;
76593;SDS011;65482;50.240;14.302;2023-02-04T04:11:29;3.35;;;1.45;;
76593;SDS011;65482;50.240;14.302;2023-02-04T04:13:55;2.45;;;1.58;;
76593;SDS011;65482;50.240;14.302;2023-02-04T04:16:20;2.42;;;1.42;;
76593;SDS011;65482;50.240;14.302;2023-02-04T04:18:46;1.90;;;1.50;;
76593;SDS011;65482;50.240;14.302;2023-02-04T04:21:12;2.33;;;1.60;;
76593;SDS011;65482;50.240;14.302;2023-02-04T04:23:38;4.43;;;1.60;;
76593;SDS011;65482;50.240;14.302;2023-02-04T04:26:03;2.08;;;1.60;;
76593;SDS011;65482;50.240;14.302;2023-02-04T04:28:29;3.25;;;1.90;;
76593;SDS011;65482;50.240;14.302;2023-02-04T04:30:54;2.35;;;1.63;;
76593;SDS011;65482;50.240;14.302;2023-02-04T04:33:20;2.65;;;1.70;;
76593;SDS011;65482;50.240;14.302;2023-02-04T04:35:46;2.05;;;1.70;;
76593;SDS011;65482;50.240;14.302;2023-02-04T04:38:11;2.53;;;1.83;;
76593;SDS011;65482;50.240;14.302;2023-02-04T04:40:37;2.53;;;1.67;;
76593;SDS011;65482;50.240;14.302;2023-02-04T04:43:02;4.25;;;1.90;;
76593;SDS011;65482;50.240;14.302;2023-02-04T04:45:28;2.20;;;1.45;;
76593;SDS011;65482;50.240;14.302;2023-02-04T04:47:53;2.92;;;1.83;;
76593;SDS011;65482;50.240;14.302;2023-02-04T04:50:19;3.08;;;1.90;;
76593;SDS011;65482;50.240;14.302;2023-02-04T04:52:45;2.83;;;1.80;;
76593;SDS011;65482;50.240;14.302;2023-02-04T04:55:11;2.00;;;1.65;;
76593;SDS011;65482;50.240;14.302;2023-02-04T04:57:37;2.80;;;1.65;;
76593;SDS011;65482;50.240;14.302;2023-02-04T05:00:03;2.15;;;1.75;;
76593;SDS011;65482;50.240;14.302;2023-02-04T05:02:30;2.50;;;1.80;;
76593;SDS011;65482;50.240;14.302;2023-02-04T05:04:56;3.42;;;1.83;;
76593;SDS011;65482;50.240;14.302;2023-02-04T05:07:21;3.35;;;1.92;;
76593;SDS011;65482;50.240;14.302;2023-02-04T05:09:47;3.22;;;1.80;;
76593;SDS011;65482;50.240;14.302;2023-02-04T05:12:12;2.67;;;2.00;;
76593;SDS011;65482;50.240;14.302;2023-02-04T05:14:38;3.63;;;2.20;;
76593;SDS011;65482;50.240;14.302;2023-02-04T05:17:03;3.10;;;2.10;;
76593;SDS011;65482;50.240;14.302;2023-02-04T05:19:29;2.53;;;1.95;;
76593;SDS011;65482;50.240;14.302;2023-02-04T05:21:54;4.63;;;2.00;;
76593;SDS011;65482;50.240;14.302;2023-02-04T05:24:21;4.10;;;1.80;;
76593;SDS011;65482;50.240;14.302;2023-02-04T05:26:47;2.53;;;1.60;;
76593;SDS011;65482;50.240;14.302;2023-02-04T05:29:13;3.35;;;2.00;;
76593;SDS011;65482;50.240;14.302;2023-02-04T05:31:38;2.50;;;1.90;;
76593;SDS011;65482;50.240;14.302;2023-02-04T05:34:04;2.15;;;1.80;;
76593;SDS011;65482;50.240;14.302;2023-02-04T05:36:29;3.00;;;1.75;;
76593;SDS011;65482;50.240;14.302;2023-02-04T05:38:55;2.20;;;1.77;;
76593;SDS011;65482;50.240;14.302;2023-02-04T05:41:20;2.10;;;1.63;;
76593;SDS011;65482;50.240;14.302;2023-02-04T05:43:46;3.78;;;1.60;;
76593;SDS011;65482;50.240;14.302;2023-02-04T05:46:12;4.55;;;1.90;;
76593;SDS011;65482;50.240;14.302;2023-02-04T05:48:37;2.55;;;1.67;;
76593;SDS011;65482;50.240;14.302;2023-02-04T05:51:04;3.13;;;1.95;;
76593;SDS011;65482;50.240;14.302;2023-02-04T05:53:30;2.25;;;1.75;;
76593;SDS011;65482;50.240;14.302;2023-02-04T05:55:56;2.42;;;1.90;;
76593;SDS011;65482;50.240;14.302;2023-02-04T05:58:21;2.35;;;1.63;;
76593;SDS011;65482;50.240;14.302;2023-02-04T06:00:47;2.33;;;1.70;;
76593;SDS011;65482;50.240;14.302;2023-02-04T06:03:13;3.28;;;1.80;;
76593;SDS011;65482;50.240;14.302;2023-02-04T06:05:38;2.85;;;1.80;;
76593;SDS011;65482;50.240;14.302;2023-02-04T06:08:04;1.98;;;1.50;;
76593;SDS011;65482;50.240;14.302;2023-02-04T06:10:30;2.10;;;1.60;;
76593;SDS011;65482;50.240;14.302;2023-02-04T06:12:55;2.60;;;1.70;;
76593;SDS011;65482;50.240;14.302;2023-02-04T06:15:21;4.00;;;1.63;;
76593;SDS011;65482;50.240;14.302;2023-02-04T06:17:46;2.13;;;1.60;;
76593;SDS011;65482;50.240;14.302;2023-02-04T06:20:12;2.83;;;1.80;;
76593;SDS011;65482;50.240;14.302;2023-02-04T06:22:39;4.15;;;1.63;;
76593;SDS011;65482;50.240;14.302;2023-02-04T06:25:04;2.42;;;1.80;;
76593;SDS011;65482;50.240;14.302;2023-02-04T06:27:31;2.97;;;2.00;;
76593;SDS011;65482;50.240;14.302;2023-02-04T06:29:56;3.53;;;2.30;;
76593;SDS011;65482;50.240;14.302;2023-02-04T06:32:22;4.35;;;2.40;;
76593;SDS011;65482;50.240;14.302;2023-02-04T06:34:47;3.75;;;2.10;;
76593;SDS011;65482;50.240;14.302;2023-02-04T06:37:13;3.08;;;2.08;;
76593;SDS011;65482;50.240;14.302;2023-02-04T06:39:41;2.90;;;1.70;;
76593;SDS011;65482;50.240;14.302;2023-02-04T06:42:07;2.25;;;1.77;;
76593;SDS011;65482;50.240;14.302;2023-02-04T06:44:33;2.97;;;1.70;;
76593;SDS011;65482;50.240;14.302;2023-02-04T06:46:59;3.97;;;1.92;;
76593;SDS011;65482;50.240;14.302;2023-02-04T06:49:24;1.95;;;1.58;;
76593;SDS011;65482;50.240;14.302;2023-02-04T06:51:50;2.83;;;1.73;;
76593;SDS011;65482;50.240;14.302;2023-02-04T06:54:16;2.15;;;1.52;;
76593;SDS011;65482;50.240;14.302;2023-02-04T06:56:42;2.38;;;1.67;;
76593;SDS011;65482;50.240;14.302;2023-02-04T06:59:08;2.70;;;1.88;;
76593;SDS011;65482;50.240;14.302;2023-02-04T07:01:34;4.20;;;2.72;;
76593;SDS011;65482;50.240;14.302;2023-02-04T07:03:59;4.15;;;2.28;;
76593;SDS011;65482;50.240;14.302;2023-02-04T07:06:25;3.03;;;2.03;;
76593;SDS011;65482;50.240;14.302;2023-02-04T07:08:50;4.82;;;2.28;;
76593;SDS011;65482;50.240;14.302;2023-02-04T07:11:16;2.92;;;2.00;;
76593;SDS011;65482;50.240;14.302;2023-02-04T07:13:41;2.97;;;2.05;;
76593;SDS011;65482;50.240;14.302;2023-02-04T07:16:07;2.33;;;1.67;;
76593;SDS011;65482;50.240;14.302;2023-02-04T07:18:32;2.53;;;1.83;;
76593;SDS011;65482;50.240;14.302;2023-02-04T07:20:58;2.03;;;1.67;;
76593;SDS011;65482;50.240;14.302;2023-02-04T07:23:24;3.38;;;1.70;;
76593;SDS011;65482;50.240;14.302;2023-02-04T07:25:50;4.35;;;1.90;;
76593;SDS011;65482;50.240;14.302;2023-02-04T07:28:18;3.00;;;1.65;;
76593;SDS011;65482;50.240;14.302;2023-02-04T07:30:44;2.22;;;1.67;;
76593;SDS011;65482;50.240;14.302;2023-02-04T07:33:10;2.25;;;1.73;;
76593;SDS011;65482;50.240;14.302;2023-02-04T07:35:36;2.05;;;1.38;;
76593;SDS011;65482;50.240;14.302;2023-02-04T07:38:04;2.55;;;1.50;;
76593;SDS011;65482;50.240;14.302;2023-02-04T07:40:30;2.45;;;1.60;;
76593;SDS011;65482;50.240;14.302;2023-02-04T07:42:56;2.13;;;1.63;;
76593;SDS011;65482;50.240;14.302;2023-02-04T07:45:22;2.17;;;1.58;;
76593;SDS011;65482;50.240;14.302;2023-02-04T07:47:47;2.20;;;1.27;;
76593;SDS011;65482;50.240;14.302;2023-02-04T07:50:13;2.00;;;1.20;;
76593;SDS011;65482;50.240;14.302;2023-02-04T07:52:40;2.30;;;1.40;;
76593;SDS011;65482;50.240;14.302;2023-02-04T07:55:06;3.05;;;1.40;;
76593;SDS011;65482;50.240;14.302;2023-02-04T07:57:32;2.47;;;1.00;;
76593;SDS011;65482;50.240;14.302;2023-02-04T07:59:59;1.52;;;1.00;;
76593;SDS011;65482;50.240;14.302;2023-02-04T08:02:25;2.65;;;1.20;;
76593;SDS011;65482;50.240;14.302;2023-02-04T08:04:51;2.13;;;1.10;;
76593;SDS011;65482;50.240;14.302;2023-02-04T08:07:17;1.83;;;1.00;;
76593;SDS011;65482;50.240;14.302;2023-02-04T08:09:43;2.35;;;1.23;;
76593;SDS011;65482;50.240;14.302;2023-02-04T08:12:08;2.15;;;1.08;;
76593;SDS011;65482;50.240;14.302;2023-02-04T08:14:34;2.22;;;1.25;;
76593;SDS011;65482;50.240;14.302;2023-02-04T08:16:59;1.95;;;1.48;;
76593;SDS011;65482;50.240;14.302;2023-02-04T08:19:25;1.60;;;1.05;;
76593;SDS011;65482;50.240;14.302;2023-02-04T08:21:50;1.85;;;1.10;;
76593;SDS011;65482;50.240;14.302;2023-02-04T08:24:16;2.17;;;1.30;;
76593;SDS011;65482;50.240;14.302;2023-02-04T08:26:42;1.67;;;1.10;;
76593;SDS011;65482;50.240;14.302;2023-02-04T08:29:08;2.40;;;1.15;;
76593;SDS011;65482;50.240;14.302;2023-02-04T08:31:34;2.03;;;1.50;;
76593;SDS011;65482;50.240;14.302;2023-02-04T08:34:03;2.80;;;1.67;;
76593;SDS011;65482;50.240;14.302;2023-02-04T08:36:30;2.10;;;1.35;;
76593;SDS011;65482;50.240;14.302;2023-02-04T08:38:56;2.00;;;1.25;;
76593;SDS011;65482;50.240;14.302;2023-02-04T08:41:21;3.08;;;1.48;;
76593;SDS011;65482;50.240;14.302;2023-02-04T08:43:47;2.53;;;1.35;;
76593;SDS011;65482;50.240;14.302;2023-02-04T08:46:13;3.85;;;2.05;;
76593;SDS011;65482;50.240;14.302;2023-02-04T08:48:38;2.95;;;1.67;;
76593;SDS011;65482;50.240;14.302;2023-02-04T08:51:04;3.20;;;1.50;;
76593;SDS011;65482;50.240;14.302;2023-02-04T08:53:30;2.53;;;1.60;;
76593;SDS011;65482;50.240;14.302;2023-02-04T08:55:55;4.05;;;1.90;;
76593;SDS011;65482;50.240;14.302;2023-02-04T08:58:21;4.72;;;1.95;;
76593;SDS011;65482;50.240;14.302;2023-02-04T09:00:46;2.20;;;1.05;;
76593;SDS011;65482;50.240;14.302;2023-02-04T09:03:12;1.15;;;0.82;;
76593;SDS011;65482;50.240;14.302;2023-02-04T09:05:37;3.40;;;1.35;;
76593;SDS011;65482;50.240;14.302;2023-02-04T09:08:03;2.88;;;1.60;;
76593;SDS011;65482;50.240;14.302;2023-02-04T09:10:28;2.65;;;1.20;;
76593;SDS011;65482;50.240;14.302;2023-02-04T09:12:54;2.95;;;1.30;;
76593;SDS011;65482;50.240;14.302;2023-02-04T09:15:23;3.42;;;1.70;;
76593;SDS011;65482;50.240;14.302;2023-02-04T09:17:49;2.85;;;1.50;;
76593;SDS011;65482;50.240;14.302;2023-02-04T09:20:17;2.70;;;1.50;;
76593;SDS011;65482;50.240;14.302;2023-02-04T09:22:43;2.80;;;1.50;;
76593;SDS011;65482;50.240;14.302;2023-02-04T09:25:09;2.67;;;1.40;;
76593;SDS011;65482;50.240;14.302;2023-02-04T09:27:35;3.10;;;1.90;;
76593;SDS011;65482;50.240;14.302;2023-02-04T09:30:00;3.88;;;1.67;;
76593;SDS011;65482;50.240;14.302;2023-02-04T09:32:26;2.70;;;1.60;;
76593;SDS011;65482;50.240;14.302;2023-02-04T09:34:51;2.65;;;1.80;;
76593;SDS011;65482;50.240;14.302;2023-02-04T09:37:17;3.35;;;1.90;;
76593;SDS011;65482;50.240;14.302;2023-02-04T09:39:42;2.58;;;1.60;;
76593;SDS011;65482;50.240;14.302;2023-02-04T09:42:09;2.47;;;1.50;;
76593;SDS011;65482;50.240;14.302;2023-02-04T09:44:38;2.40;;;1.40;;
76593;SDS011;65482;50.240;14.302;2023-02-04T09:47:03;2.20;;;1.40;;
76593;SDS011;65482;50.240;14.302;2023-02-04T09:49:29;1.95;;;1.10;;
76593;SDS011;65482;50.240;14.302;2023-02-04T09:51:56;1.90;;;1.25;;
76593;SDS011;65482;50.240;14.302;2023-02-04T09:54:22;2.53;;;1.45;;
76593;SDS011;65482;50.240;14.302;2023-02-04T09:56:48;2.92;;;1.33;;
76593;SDS011;65482;50.240;14.302;2023-02-04T09:59:16;3.20;;;1.40;;
76593;SDS011;65482;50.240;14.302;2023-02-04T10:01:50;2.45;;;1.45;;
76593;SDS011;65482;50.240;14.302;2023-02-04T10:04:21;2.90;;;1.63;;
76593;SDS011;65482;50.240;14.302;2023-02-04T10:06:47;2.95;;;1.60;;
76593;SDS011;65482;50.240;14.302;2023-02-04T10:09:13;3.58;;;1.85;;
76593;SDS011;65482;50.240;14.302;2023-02-04T10:11:40;3.35;;;1.90;;
76593;SDS011;65482;50.240;14.302;2023-02-04T10:14:28;4.65;;;1.52;;
76593;SDS011;65482;50.240;14.302;2023-02-04T10:16:53;3.03;;;1.30;;
76593;SDS011;65482;50.240;14.302;2023-02-04T10:19:21;1.75;;;1.20;;
76593;SDS011;65482;50.240;14.302;2023-02-04T10:21:48;3.65;;;1.52;;
76593;SDS011;65482;50.240;14.302;2023-02-04T10:24:20;1.92;;;1.13;;
76593;SDS011;65482;50.240;14.302;2023-02-04T10:26:50;1.95;;;1.20;;
76593;SDS011;65482;50.240;14.302;2023-02-04T10:29:17;3.78;;;1.20;;
76593;SDS011;65482;50.240;14.302;2023-02-04T10:31:46;4.32;;;1.58;;
76593;SDS011;65482;50.240;14.302;2023-02-04T10:36:57;2.10;;;1.30;;
76593;SDS011;65482;50.240;14.302;2023-02-04T10:39:23;2.35;;;1.27;;
76593;SDS011;65482;50.240;14.302;2023-02-04T10:41:54;3.15;;;1.23;;
76593;SDS011;65482;50.240;14.302;2023-02-04T10:44:28;2.53;;;1.48;;
76593;SDS011;65482;50.240;14.302;2023-02-04T10:47:14;2.08;;;1.15;;
76593;SDS011;65482;50.240;14.302;2023-02-04T10:49:40;1.70;;;1.17;;
76593;SDS011;65482;50.240;14.302;2023-02-04T10:52:16;2.35;;;1.13;;
76593;SDS011;65482;50.240;14.302;2023-02-04T10:54:44;2.45;;;1.40;;
76593;SDS011;65482;50.240;14.302;2023-02-04T10:59:48;2.47;;;1.15;;
76593;SDS011;65482;50.240;14.302;2023-02-04T11:03:18;1.60;;;1.13;;
76593;SDS011;65482;50.240;14.302;2023-02-04T11:05:32;3.22;;;1.30;;
76593;SDS011;65482;50.240;14.302;2023-02-04T11:08:00;3.05;;;1.38;;
76593;SDS011;65482;50.240;14.302;2023-02-04T11:10:28;2.95;;;1.48;;
76593;SDS011;65482;50.240;14.302;2023-02-04T11:18:10;3.30;;;1.65;;
76593;SDS011;65482;50.240;14.302;2023-02-04T11:20:50;3.03;;;1.50;;
76593;SDS011;65482;50.240;14.302;2023-02-04T11:26:02;2.95;;;1.40;;
76593;SDS011;65482;50.240;14.302;2023-02-04T11:34:43;2.17;;;1.42;;
76593;SDS011;65482;50.240;14.302;2023-02-04T11:36:53;1.80;;;1.25;;
76593;SDS011;65482;50.240;14.302;2023-02-04T11:39:33;1.98;;;1.10;;
76593;SDS011;65482;50.240;14.302;2023-02-04T11:42:01;3.17;;;1.42;;
76593;SDS011;65482;50.240;14.302;2023-02-04T11:44:28;3.38;;;1.60;;
76593;SDS011;65482;50.240;14.302;2023-02-04T11:46:54;2.42;;;1.60;;
76593;SDS011;65482;50.240;14.302;2023-02-04T11:49:21;3.35;;;1.60;;
76593;SDS011;65482;50.240;14.302;2023-02-04T11:51:48;2.03;;;1.50;;
76593;SDS011;65482;50.240;14.302;2023-02-04T11:54:15;4.90;;;1.60;;
76593;SDS011;65482;50.240;14.302;2023-02-04T11:56:46;2.35;;;1.40;;
76593;SDS011;65482;50.240;14.302;2023-02-04T11:59:12;2.63;;;1.48;;
76593;SDS011;65482;50.240;14.302;2023-02-04T12:01:39;3.95;;;1.40;;
76593;SDS011;65482;50.240;14.302;2023-02-04T12:04:06;1.50;;;1.10;;
76593;SDS011;65482;50.240;14.302;2023-02-04T12:06:43;2.03;;;1.40;;
76593;SDS011;65482;50.240;14.302;2023-02-04T12:09:26;4.30;;;1.50;;
76593;SDS011;65482;50.240;14.302;2023-02-04T12:11:57;3.83;;;1.50;;
76593;SDS011;65482;50.240;14.302;2023-02-04T12:14:30;2.78;;;1.40;;
76593;SDS011;65482;50.240;14.302;2023-02-04T12:17:11;3.03;;;1.60;;
76593;SDS011;65482;50.240;14.302;2023-02-04T12:19:40;2.40;;;1.38;;
76593;SDS011;65482;50.240;14.302;2023-02-04T12:22:06;5.45;;;1.52;;
76593;SDS011;65482;50.240;14.302;2023-02-04T12:24:32;3.95;;;1.63;;
76593;SDS011;65482;50.240;14.302;2023-02-04T12:26:57;1.77;;;1.20;;
76593;SDS011;65482;50.240;14.302;2023-02-04T12:29:23;2.45;;;1.50;;
76593;SDS011;65482;50.240;14.302;2023-02-04T12:31:48;3.13;;;1.60;;
76593;SDS011;65482;50.240;14.302;2023-02-04T12:34:14;2.80;;;1.73;;
76593;SDS011;65482;50.240;14.302;2023-02-04T12:36:41;2.70;;;1.50;;
76593;SDS011;65482;50.240;14.302;2023-02-04T12:39:07;3.30;;;1.60;;
76593;SDS011;65482;50.240;14.302;2023-02-04T12:41:32;2.42;;;1.77;;
76593;SDS011;65482;50.240;14.302;2023-02-04T12:43:58;3.75;;;1.50;;
76593;SDS011;65482;50.240;14.302;2023-02-04T12:46:25;2.85;;;1.40;;
76593;SDS011;65482;50.240;14.302;2023-02-04T12:48:51;1.90;;;1.30;;
76593;SDS011;65482;50.240;14.302;2023-02-04T12:51:17;2.70;;;1.25;;
76593;SDS011;65482;50.240;14.302;2023-02-04T12:53:43;2.45;;;1.35;;
76593;SDS011;65482;50.240;14.302;2023-02-04T12:56:08;2.75;;;1.50;;
76593;SDS011;65482;50.240;14.302;2023-02-04T12:58:34;2.78;;;1.38;;
76593;SDS011;65482;50.240;14.302;2023-02-04T13:00:59;2.88;;;1.23;;
76593;SDS011;65482;50.240;14.302;2023-02-04T13:03:25;2.72;;;1.27;;
76593;SDS011;65482;50.240;14.302;2023-02-04T13:05:51;2.35;;;1.25;;
76593;SDS011;65482;50.240;14.302;2023-02-04T13:08:17;4.13;;;1.33;;
76593;SDS011;65482;50.240;14.302;2023-02-04T13:10:42;1.60;;;1.08;;
76593;SDS011;65482;50.240;14.302;2023-02-04T13:13:08;2.17;;;1.33;;
76593;SDS011;65482;50.240;14.302;2023-02-04T13:15:33;2.08;;;1.30;;
76593;SDS011;65482;50.240;14.302;2023-02-04T13:17:59;4.43;;;1.20;;
76593;SDS011;65482;50.240;14.302;2023-02-04T13:20:25;2.15;;;1.10;;
76593;SDS011;65482;50.240;14.302;2023-02-04T13:22:51;3.10;;;1.48;;
76593;SDS011;65482;50.240;14.302;2023-02-04T13:25:16;1.40;;;1.10;;
76593;SDS011;65482;50.240;14.302;2023-02-04T13:27:42;1.80;;;1.20;;
76593;SDS011;65482;50.240;14.302;2023-02-04T13:30:08;2.55;;;1.27;;
76593;SDS011;65482;50.240;14.302;2023-02-04T13:32:35;2.40;;;1.10;;
76593;SDS011;65482;50.240;14.302;2023-02-04T13:35:01;2.78;;;1.15;;
76593;SDS011;65482;50.240;14.302;2023-02-04T13:37:27;1.60;;;1.10;;
76593;SDS011;65482;50.240;14.302;2023-02-04T13:39:52;1.77;;;0.98;;
76593;SDS011;65482;50.240;14.302;2023-02-04T13:42:18;1.63;;;1.20;;
76593;SDS011;65482;50.240;14.302;2023-02-04T13:44:43;2.45;;;1.10;;
76593;SDS011;65482;50.240;14.302;2023-02-04T13:47:09;2.25;;;1.00;;
76593;SDS011;65482;50.240;14.302;2023-02-04T13:49:35;2.42;;;1.20;;
76593;SDS011;65482;50.240;14.302;2023-02-04T13:52:00;1.80;;;1.10;;
76593;SDS011;65482;50.240;14.302;2023-02-04T13:54:26;3.63;;;1.42;;
76593;SDS011;65482;50.240;14.302;2023-02-04T13:56:52;2.65;;;1.27;;
76593;SDS011;65482;50.240;14.302;2023-02-04T13:59:17;2.63;;;1.33;;
76593;SDS011;65482;50.240;14.302;2023-02-04T14:01:43;3.30;;;1.45;;
76593;SDS011;65482;50.240;14.302;2023-02-04T14:04:08;1.95;;;1.20;;
76593;SDS011;65482;50.240;14.302;2023-02-04T14:06:34;4.45;;;1.77;;
76593;SDS011;65482;50.240;14.302;2023-02-04T14:09:02;1.60;;;1.00;;
76593;SDS011;65482;50.240;14.302;2023-02-04T14:11:29;1.23;;;0.93;;
76593;SDS011;65482;50.240;14.302;2023-02-04T14:13:54;1.55;;;1.02;;
76593;SDS011;65482;50.240;14.302;2023-02-04T14:16:20;3.83;;;1.60;;
76593;SDS011;65482;50.240;14.302;2023-02-04T14:18:46;2.05;;;1.10;;
76593;SDS011;65482;50.240;14.302;2023-02-04T14:21:12;1.70;;;1.08;;
76593;SDS011;65482;50.240;14.302;2023-02-04T14:23:37;1.70;;;1.08;;
76593;SDS011;65482;50.240;14.302;2023-02-04T14:26:03;1.77;;;1.00;;
76593;SDS011;65482;50.240;14.302;2023-02-04T14:28:28;3.42;;;1.17;;
76593;SDS011;65482;50.240;14.302;2023-02-04T14:30:54;3.67;;;1.20;;
76593;SDS011;65482;50.240;14.302;2023-02-04T14:33:20;4.15;;;1.60;;
76593;SDS011;65482;50.240;14.302;2023-02-04T14:35:46;3.33;;;1.42;;
76593;SDS011;65482;50.240;14.302;2023-02-04T14:38:11;3.92;;;1.60;;
76593;SDS011;65482;50.240;14.302;2023-02-04T14:40:40;2.95;;;1.40;;
76593;SDS011;65482;50.240;14.302;2023-02-04T14:43:06;2.95;;;1.48;;
76593;SDS011;65482;50.240;14.302;2023-02-04T14:45:33;3.50;;;1.63;;
76593;SDS011;65482;50.240;14.302;2023-02-04T14:47:58;3.70;;;1.77;;
76593;SDS011;65482;50.240;14.302;2023-02-04T14:50:25;4.95;;;2.22;;